Time;durP1;ratioP1;P1;durP2;ratioP2;P2;SDS_P1;SDS_P2;PMS_P1;PMS_P2;Temp;Humidity;BMP_temperature;BMP_pressure;BME280_temperature;BME280_humidity;BME280_pressure;Samples;Min_cycle;Max_cycle;Signal;HPM_P1;HPM_P2
2023/09/04 00:02:17;;;;;;;0.20;0.20;;;;;;;20.56;62.50;101296.75;4957542;28;20031;-91
2023/09/04 00:04:42;;;;;;;0.10;0.10;;;;;;;20.48;63.09;101296.50;4973955;28;20401;-91
2023/09/04 00:07:08;;;;;;;0.10;0.10;;;;;;;20.54;62.15;101296.84;4973591;28;20030;-91
2023/09/04 00:09:34;;;;;;;0.10;0.10;;;;;;;20.37;63.73;101286.81;4957551;28;20027;-93
2023/09/04 00:11:59;;;;;;;0.20;0.20;;;;;;;20.39;63.28;101284.06;4973575;28;20484;-92
2023/09/04 00:14:25;;;;;;;0.10;0.10;;;;;;;20.49;62.22;101287.66;4957374;28;20058;-88
2023/09/04 00:16:50;;;;;;;0.20;0.20;;;;;;;20.38;62.98;101283.25;4957539;28;20484;-91
2023/09/04 00:19:17;;;;;;;0.10;0.10;;;;;;;20.43;63.03;101272.38;4973463;28;20047;-91
2023/09/04 00:21:42;;;;;;;0.10;0.10;;;;;;;20.37;63.62;101271.06;4957440;28;20030;-92
2023/09/04 00:24:08;;;;;;;0.10;0.10;;;;;;;20.36;63.12;101273.81;4973343;28;20125;-93
2023/09/04 00:26:33;;;;;;;0.10;0.10;;;;;;;20.30;62.35;101275.13;4957105;28;20481;-91
2023/09/04 00:28:59;;;;;;;0.10;0.10;;;;;;;20.34;62.62;101276.53;4956784;28;20042;-92
2023/09/04 00:31:24;;;;;;;0.10;0.10;;;;;;;20.25;63.31;101279.91;4973333;28;20026;-91
2023/09/04 00:33:50;;;;;;;0.13;0.13;;;;;;;20.27;62.39;101281.47;4956936;28;20031;-90
2023/09/04 00:36:15;;;;;;;0.10;0.10;;;;;;;20.24;62.10;101278.22;4956352;28;20540;-90
2023/09/04 00:38:59;;;;;;;0.10;0.10;;;;;;;20.26;60.37;101271.91;4973142;28;20453;-91
2023/09/04 00:41:25;;;;;;;0.10;0.10;;;;;;;20.21;61.30;101274.06;4974075;28;20030;-90
2023/09/04 00:43:50;;;;;;;0.20;0.20;;;;;;;20.14;61.38;101277.28;4956549;28;20049;-91
2023/09/04 00:46:15;;;;;;;0.20;0.20;;;;;;;20.04;60.59;101279.78;4956803;28;20041;-91
2023/09/04 00:48:41;;;;;;;0.20;0.20;;;;;;;20.16;60.32;101272.78;4956910;28;20034;-91
2023/09/04 00:51:07;;;;;;;0.10;0.10;;;;;;;20.07;60.20;101271.69;4956762;28;20500;-90
2023/09/04 00:53:33;;;;;;;0.17;0.17;;;;;;;20.05;60.21;101263.06;4956788;28;20454;-92
2023/09/04 00:55:59;;;;;;;0.20;0.20;;;;;;;19.94;60.38;101263.91;4956750;28;20580;-92
2023/09/04 00:58:24;;;;;;;0.10;0.10;;;;;;;19.79;59.65;101245.91;4972614;28;20035;-90
2023/09/04 01:00:50;;;;;;;0.20;0.20;;;;;;;19.86;59.12;101263.72;4956659;28;20481;-91
2023/09/04 01:03:16;;;;;;;0.10;0.10;;;;;;;19.74;59.25;101272.50;4957173;28;20033;-91
2023/09/04 01:05:41;;;;;;;0.20;0.20;;;;;;;19.73;58.72;101257.72;4972643;28;20027;-91
2023/09/04 01:08:07;;;;;;;0.20;0.20;;;;;;;19.80;58.34;101269.44;4972285;28;20027;-92
2023/09/04 01:10:46;;;;;;;0.20;0.20;;;;;;;19.66;58.88;101254.72;4972591;28;20086;-91
2023/09/04 01:13:22;;;;;;;0.20;0.20;;;;;;;19.48;59.36;101240.38;4957169;28;20034;-91
2023/09/04 01:15:48;;;;;;;0.10;0.10;;;;;;;19.58;59.28;101265.00;4956523;28;20023;-92
2023/09/04 01:18:13;;;;;;;0.10;0.10;;;;;;;19.55;58.34;101256.47;4956204;28;20054;-92
2023/09/04 01:20:39;;;;;;;0.10;0.10;;;;;;;19.53;58.55;101261.00;4956194;28;20038;-92
2023/09/04 01:23:05;;;;;;;0.10;0.10;;;;;;;19.48;59.46;101262.22;4972373;28;20038;-92
2023/09/04 01:25:45;;;;;;;0.10;0.10;;;;;;;19.39;59.07;101251.56;4956092;28;20041;-90
2023/09/04 01:28:20;;;;;;;0.10;0.10;;;;;;;19.46;58.46;101263.25;4956115;28;20042;-88
2023/09/04 01:30:57;;;;;;;0.10;0.10;;;;;;;19.23;59.30;101251.88;4956932;28;20042;-90
2023/09/04 01:33:24;;;;;;;0.10;0.10;;;;;;;19.41;59.25;101260.16;4956540;28;20069;-91
2023/09/04 01:35:50;;;;;;;0.10;0.10;;;;;;;19.27;58.95;101234.13;4956178;28;20058;-92
2023/09/04 01:38:15;;;;;;;0.20;0.20;;;;;;;19.28;59.97;101243.69;4956112;28;20501;-92
2023/09/04 01:40:41;;;;;;;0.10;0.10;;;;;;;19.30;59.74;101257.53;4955868;28;20081;-91
2023/09/04 01:43:06;;;;;;;0.10;0.10;;;;;;;19.28;59.75;101259.44;4956026;28;20039;-91
2023/09/04 01:45:31;;;;;;;0.10;0.10;;;;;;;19.27;60.17;101252.47;4971979;28;20034;-91
2023/09/04 01:47:57;;;;;;;0.10;0.10;;;;;;;19.12;60.03;101250.06;4971952;28;20037;-91
2023/09/04 01:50:22;;;;;;;0.10;0.10;;;;;;;19.23;60.31;101249.25;4955745;28;20035;-90
2023/09/04 01:52:48;;;;;;;0.10;0.10;;;;;;;19.19;59.99;101238.19;4955770;28;20031;-91
2023/09/04 01:55:13;;;;;;;0.10;0.10;;;;;;;19.06;60.35;101213.81;4955460;28;20497;-91
2023/09/04 01:57:39;;;;;;;0.10;0.10;;;;;;;19.10;60.40;101231.00;4971885;28;20515;-90
2023/09/04 02:00:05;;;;;;;0.10;0.10;;;;;;;19.09;60.84;101234.56;4971947;28;20035;-91
2023/09/04 02:02:31;;;;;;;0.10;0.10;;;;;;;19.01;60.70;101226.44;4956159;28;20084;-91
2023/09/04 02:04:56;;;;;;;0.20;0.20;;;;;;;19.04;61.08;101228.81;4972831;28;20030;-92
2023/09/04 02:07:22;;;;;;;0.10;0.10;;;;;;;19.03;61.13;101224.53;4955822;28;20560;-92
2023/09/04 02:09:47;;;;;;;0.10;0.10;;;;;;;18.99;61.23;101217.88;4955255;28;20109;-91
2023/09/04 02:12:12;;;;;;;0.10;0.10;;;;;;;18.94;61.49;101227.00;4955620;28;20031;-90
2023/09/04 02:14:38;;;;;;;0.20;0.20;;;;;;;18.79;61.37;101216.72;4971876;28;20030;-90
2023/09/04 02:17:03;;;;;;;0.10;0.10;;;;;;;18.78;61.86;101220.31;4971767;28;20035;-91
2023/09/04 02:19:29;;;;;;;0.10;0.10;;;;;;;18.91;61.81;101223.69;4955581;28;20058;-88
2023/09/04 02:21:55;;;;;;;0.10;0.10;;;;;;;18.83;61.38;101225.19;4955366;28;20181;-90
2023/09/04 02:24:20;;;;;;;0.10;0.10;;;;;;;18.78;61.83;101224.69;4971182;28;20058;-90
2023/09/04 02:26:46;;;;;;;0.10;0.10;;;;;;;18.85;62.03;101228.53;4971370;28;20026;-89
2023/09/04 02:29:11;;;;;;;0.10;0.10;;;;;;;18.83;62.46;101230.44;4971335;28;20059;-91
2023/09/04 02:31:36;;;;;;;0.10;0.10;;;;;;;18.73;62.36;101216.34;4955560;28;20030;-89
2023/09/04 02:34:02;;;;;;;0.10;0.10;;;;;;;18.83;62.25;101212.91;4971470;28;20046;-91
2023/09/04 02:36:27;;;;;;;0.10;0.10;;;;;;;18.83;61.75;101212.09;4955325;28;20090;-90
2023/09/04 02:38:53;;;;;;;0.10;0.10;;;;;;;18.75;62.16;101204.78;4955119;28;20027;-90
2023/09/04 02:41:19;;;;;;;0.10;0.10;;;;;;;18.71;62.04;101192.03;4971544;28;20027;-90
2023/09/04 02:43:44;;;;;;;0.10;0.10;;;;;;;18.74;61.99;101194.41;4955126;28;20084;-90
2023/09/04 02:46:09;;;;;;;0.10;0.10;;;;;;;18.59;62.30;101194.56;4971405;28;20039;-92
2023/09/04 02:48:35;;;;;;;0.20;0.20;;;;;;;18.63;62.08;101196.00;4972453;28;20037;-91
2023/09/04 02:51:00;;;;;;;0.10;0.10;;;;;;;18.55;62.55;101203.59;4955212;28;20038;-91
2023/09/04 02:53:27;;;;;;;0.10;0.10;;;;;;;18.45;62.87;101184.25;4954954;28;20035;-89
2023/09/04 02:55:52;;;;;;;0.10;0.10;;;;;;;18.53;62.67;101202.88;4955110;28;20121;-90
2023/09/04 02:58:18;;;;;;;0.15;0.15;;;;;;;18.45;62.89;101179.00;4955886;28;20066;-89
2023/09/04 03:00:43;;;;;;;0.20;0.20;;;;;;;18.60;62.89;101198.88;4974580;28;20081;-92
2023/09/04 03:03:09;;;;;;;0.10;0.10;;;;;;;18.62;62.41;101185.66;4974962;28;20081;-91
2023/09/04 03:05:34;;;;;;;0.20;0.20;;;;;;;18.51;62.20;101175.97;4958451;28;20058;-89
2023/09/04 03:08:00;;;;;;;0.10;0.10;;;;;;;18.51;63.02;101181.19;4974111;28;20027;-90
2023/09/04 03:10:25;;;;;;;0.10;0.10;;;;;;;18.43;62.86;101175.69;4974340;28;20030;-89
2023/09/04 03:12:51;;;;;;;0.10;0.10;;;;;;;18.30;63.49;101177.53;4942513;28;20034;-88
2023/09/04 03:15:17;;;;;;;0.10;0.10;;;;;;;18.43;63.04;101174.84;4957696;28;20114;-87
2023/09/04 03:17:42;;;;;;;0.10;0.10;;;;;;;18.51;62.96;101177.75;4957154;28;20412;-87
2023/09/04 03:20:10;;;;;;;0.10;0.10;;;;;;;18.39;62.79;101179.47;4973483;28;20034;-87
2023/09/04 03:22:35;;;;;;;0.10;0.10;;;;;;;18.48;63.10;101186.63;4957420;28;20069;-87
2023/09/04 03:25:01;;;;;;;0.10;0.10;;;;;;;18.55;62.59;101182.63;4957495;28;20034;-88
2023/09/04 03:27:26;;;;;;;0.20;0.20;;;;;;;18.47;62.59;101173.66;4957576;28;20047;-87
2023/09/04 03:29:52;;;;;;;0.10;0.10;;;;;;;18.27;63.31;101141.06;4973506;28;20551;-90
2023/09/04 03:32:18;;;;;;;0.10;0.10;;;;;;;18.61;62.39;101189.22;4973685;28;20500;-89
2023/09/04 03:34:43;;;;;;;0.20;0.20;;;;;;;18.59;62.12;101194.56;4957477;28;20498;-88
2023/09/04 03:37:08;;;;;;;0.10;0.10;;;;;;;18.63;62.17;101190.78;4957089;28;20027;-89
2023/09/04 03:39:39;;;;;;;0.10;0.10;;;;;;;18.72;62.17;101194.53;4957293;28;20054;-87
2023/09/04 03:42:05;;;;;;;0.20;0.20;;;;;;;18.70;61.86;101178.09;4957793;28;20027;-89
2023/09/04 03:44:31;;;;;;;0.10;0.10;;;;;;;18.85;61.67;101195.28;4957248;28;20122;-88
2023/09/04 03:46:56;;;;;;;0.10;0.10;;;;;;;18.91;61.56;101194.84;4956898;28;20465;-88
2023/09/04 03:49:21;;;;;;;0.20;0.20;;;;;;;18.68;61.47;101192.22;4956925;28;20031;-88
2023/09/04 03:51:47;;;;;;;0.10;0.10;;;;;;;18.76;61.44;101190.72;4937707;28;20030;-89
2023/09/04 03:54:12;;;;;;;0.20;0.20;;;;;;;18.89;61.24;101198.53;4956250;28;20437;-86
2023/09/04 03:56:38;;;;;;;0.20;0.20;;;;;;;18.87;61.24;101203.03;4957249;28;20050;-86
2023/09/04 03:59:04;;;;;;;0.10;0.10;;;;;;;18.87;60.98;101198.63;4940431;28;20034;-86
2023/09/04 04:01:31;;;;;;;0.10;0.10;;;;;;;18.88;61.16;101204.72;4972239;28;20064;-86
2023/09/04 04:03:57;;;;;;;0.13;0.13;;;;;;;18.93;60.63;101189.47;4955306;28;20543;-87
2023/09/04 04:06:22;;;;;;;0.20;0.20;;;;;;;18.96;60.78;101198.88;4954695;28;20034;-86
2023/09/04 04:08:49;;;;;;;0.10;0.10;;;;;;;18.88;60.92;101202.09;4956209;28;20031;-87
2023/09/04 04:11:15;;;;;;;0.10;0.10;;;;;;;18.97;61.75;101203.19;4964013;28;20041;-85
2023/09/04 04:13:41;;;;;;;0.10;0.10;;;;;;;18.99;60.88;101217.88;4971689;28;20023;-86
2023/09/04 04:16:06;;;;;;;0.20;0.20;;;;;;;18.93;60.88;101215.69;4955937;28;20042;-86
2023/09/04 04:18:31;;;;;;;0.10;0.10;;;;;;;18.94;62.27;101217.34;4971440;28;20058;-88
2023/09/04 04:20:57;;;;;;;0.10;0.10;;;;;;;18.88;61.17;101217.84;4971662;28;20026;-93
2023/09/04 04:23:23;;;;;;;0.20;0.20;;;;;;;18.98;61.25;101202.25;4959444;28;20046;-92
2023/09/04 04:25:49;;;;;;;0.10;0.10;;;;;;;19.00;60.35;101222.16;4956951;28;20050;-91
2023/09/04 04:28:20;;;;;;;0.10;0.10;;;;;;;19.15;60.67;101226.22;4957403;28;20034;-92
2023/09/04 04:30:46;;;;;;;0.10;0.10;;;;;;;19.12;60.21;101221.22;4942682;28;20033;-91
2023/09/04 04:33:12;;;;;;;0.10;0.10;;;;;;;19.16;59.79;101212.16;4957901;28;20030;-93
2023/09/04 04:35:39;;;;;;;0.10;0.10;;;;;;;19.51;60.08;101221.78;4972835;28;20041;-94
2023/09/04 04:38:05;;;;;;;0.20;0.20;;;;;;;19.57;59.17;101181.13;4971944;28;20073;-87
2023/09/04 04:40:30;;;;;;;0.20;0.20;;;;;;;19.84;57.90;101220.97;4971516;28;20026;-88
2023/09/04 04:42:56;;;;;;;0.20;0.20;;;;;;;19.79;58.35;101230.16;4973031;28;20037;-89
2023/09/04 04:45:22;;;;;;;0.10;0.10;;;;;;;19.70;58.56;101219.44;4959518;28;20027;-91
2023/09/04 04:47:48;;;;;;;0.10;0.10;;;;;;;19.67;58.23;101226.72;4975677;28;20118;-90
2023/09/04 04:50:13;;;;;;;0.10;0.10;;;;;;;19.24;59.35;101201.09;4960949;28;20097;-91
2023/09/04 04:52:39;;;;;;;0.13;0.13;;;;;;;19.53;59.21;101232.97;4938271;28;20516;-90
2023/09/04 04:55:05;;;;;;;0.20;0.20;;;;;;;19.62;58.31;101216.56;4962600;28;20030;-87
2023/09/04 04:57:30;;;;;;;0.20;0.20;;;;;;;19.77;59.90;101230.28;4968185;28;20399;-88
2023/09/04 04:59:55;;;;;;;0.20;0.20;;;;;;;19.87;58.26;101235.66;4966972;28;20054;-91
2023/09/04 05:02:21;;;;;;;0.10;0.10;;;;;;;19.64;59.02;101234.81;4957380;28;20092;-91
2023/09/04 05:04:48;;;;;;;0.20;0.20;;;;;;;19.56;58.96;101242.44;4952829;29;20031;-93
2023/09/04 05:07:14;;;;;;;0.20;0.20;;;;;;;19.41;59.31;101229.50;4969278;28;20026;-87
2023/09/04 05:09:40;;;;;;;0.20;0.20;;;;;;;19.45;60.02;101251.09;4956126;28;20081;-92
2023/09/04 05:12:06;;;;;;;0.20;0.20;;;;;;;19.39;60.24;101225.34;4975436;28;20026;-89
2023/09/04 05:14:32;;;;;;;0.10;0.10;;;;;;;19.35;60.07;101245.72;4962171;28;20042;-87
2023/09/04 05:16:58;;;;;;;0.10;0.10;;;;;;;19.37;60.89;101254.31;4961738;28;20081;-92
2023/09/04 05:19:24;;;;;;;0.20;0.20;;;;;;;19.10;60.80;101214.44;4969919;28;20070;-93
2023/09/04 05:21:50;;;;;;;0.10;0.10;;;;;;;19.27;60.86;101236.75;4989616;28;20045;-93
2023/09/04 05:24:16;;;;;;;0.20;0.20;;;;;;;19.33;60.33;101231.03;4970417;28;20588;-93
2023/09/04 05:26:41;;;;;;;0.10;0.10;;;;;;;19.41;60.75;101249.66;4970947;28;20030;-87
2023/09/04 05:29:07;;;;;;;0.20;0.20;;;;;;;19.17;60.83;101226.97;4959420;28;20093;-90
2023/09/04 05:31:33;;;;;;;0.10;0.10;;;;;;;19.06;61.53;101228.72;4970499;28;20085;-91
2023/09/04 05:33:58;;;;;;;0.20;0.20;;;;;;;19.32;60.95;101253.81;4975798;28;20042;-90
2023/09/04 05:36:24;;;;;;;0.10;0.10;;;;;;;19.11;61.82;101237.91;4973254;28;20046;-91
2023/09/04 05:38:50;;;;;;;0.20;0.20;;;;;;;19.20;62.37;101229.34;4972100;28;20109;-90
2023/09/04 05:41:16;;;;;;;0.10;0.10;;;;;;;19.25;62.08;101249.97;4972397;28;20038;-90
2023/09/04 05:43:41;;;;;;;0.10;0.10;;;;;;;19.02;62.64;101235.97;4967719;28;20027;-87
2023/09/04 05:46:07;;;;;;;0.10;0.10;;;;;;;19.34;62.97;101261.56;4933991;28;20046;-90
2023/09/04 05:48:34;;;;;;;0.20;0.20;;;;;;;19.67;62.52;101266.09;4973566;28;20070;-92
2023/09/04 05:51:01;;;;;;;0.20;0.20;;;;;;;19.87;62.03;101257.50;4957293;28;20031;-91
2023/09/04 05:53:28;;;;;;;0.10;0.10;;;;;;;20.25;61.28;101267.59;4953715;28;20069;-93
2023/09/04 05:56:09;;;;;;;0.13;0.13;;;;;;;20.21;60.22;101271.44;4955207;28;20488;-92
2023/09/04 05:58:37;;;;;;;0.20;0.20;;;;;;;20.21;59.18;101260.91;4953133;28;20055;-91
2023/09/04 06:01:03;;;;;;;0.20;0.20;;;;;;;19.89;61.80;101270.50;4976821;28;20141;-90
2023/09/04 06:03:29;;;;;;;0.20;0.20;;;;;;;20.03;61.04;101257.13;4936853;28;20490;-90
2023/09/04 06:05:54;;;;;;;0.17;0.17;;;;;;;20.17;61.42;101262.13;4962820;28;20027;-92
2023/09/04 06:08:26;;;;;;;0.20;0.20;;;;;;;19.98;60.68;101248.78;4951162;28;20036;-92
2023/09/04 06:10:51;;;;;;;0.10;0.10;;;;;;;20.07;60.15;101237.56;4952823;28;20525;-91
2023/09/04 06:13:18;;;;;;;0.10;0.10;;;;;;;20.20;61.50;101259.25;4977871;28;20034;-90
2023/09/04 06:15:47;;;;;;;0.10;0.10;;;;;;;20.29;61.22;101257.69;4978978;28;20777;-92
2023/09/04 06:18:13;;;;;;;0.10;0.10;;;;;;;20.45;59.62;101267.81;4983529;28;20062;-94
2023/09/04 06:20:39;;;;;;;0.20;0.20;;;;;;;20.15;59.92;101240.38;4959990;28;20026;-89
2023/09/04 06:23:13;;;;;;;0.20;0.20;;;;;;;20.15;60.02;101258.78;4957943;28;20035;-93
2023/09/04 06:25:41;;;;;;;0.20;0.20;;;;;;;20.31;59.53;101253.97;4958641;28;20058;-88
2023/09/04 06:28:07;;;;;;;0.20;0.20;;;;;;;19.91;61.00;101276.47;4958487;28;20038;-93
2023/09/04 06:30:33;;;;;;;0.20;0.20;;;;;;;19.73;61.43;101282.19;4955826;28;20074;-89
2023/09/04 06:32:59;;;;;;;0.20;0.20;;;;;;;19.47;62.63;101275.44;4948073;28;20031;-92
2023/09/04 06:35:25;;;;;;;0.20;0.20;;;;;;;19.59;62.76;101285.03;4958037;28;20042;-90
2023/09/04 06:37:50;;;;;;;0.10;0.10;;;;;;;19.65;62.06;101279.31;4982584;28;20038;-91
2023/09/04 06:40:17;;;;;;;0.20;0.20;;;;;;;19.79;62.41;101295.81;4952265;28;20030;-92
2023/09/04 06:42:42;;;;;;;0.20;0.20;;;;;;;19.66;62.71;101277.50;4983657;28;20193;-88
2023/09/04 06:45:08;;;;;;;0.20;0.20;;;;;;;19.65;63.08;101286.34;4962149;28;20039;-94
2023/09/04 06:47:33;;;;;;;0.20;0.20;;;;;;;19.62;63.02;101281.34;4961530;28;20086;-91
2023/09/04 06:50:01;;;;;;;0.20;0.20;;;;;;;19.90;63.18;101298.44;4959134;28;20147;-93
2023/09/04 06:52:26;;;;;;;0.20;0.20;;;;;;;20.11;62.20;101299.38;4956211;28;20055;-91
2023/09/04 06:54:52;;;;;;;0.10;0.10;;;;;;;19.86;63.30;101307.47;4951584;28;20082;-91
2023/09/04 06:57:18;;;;;;;0.20;0.20;;;;;;;19.94;63.03;101305.94;4965476;28;20377;-93
2023/09/04 06:59:44;;;;;;;0.20;0.20;;;;;;;19.93;63.57;101298.19;4954046;29;20089;-92
2023/09/04 07:02:15;;;;;;;0.17;0.17;;;;;;;19.99;63.25;101292.47;4975414;28;20168;-94
2023/09/04 07:04:41;;;;;;;0.20;0.20;;;;;;;20.17;63.15;101300.69;4986353;28;20480;-94
2023/09/04 07:07:11;;;;;;;0.10;0.10;;;;;;;20.06;64.19;101272.66;4977688;28;20093;-93
2023/09/04 07:09:38;;;;;;;0.10;0.10;;;;;;;20.21;64.05;101289.81;4981766;28;20053;-90
2023/09/04 07:12:05;;;;;;;0.20;0.20;;;;;;;20.60;62.73;101300.78;4979199;28;20509;-90
2023/09/04 07:14:32;;;;;;;0.20;0.20;;;;;;;20.83;62.66;101305.00;4964381;28;20023;-88
2023/09/04 07:17:00;;;;;;;0.20;0.20;;;;;;;20.97;62.42;101305.69;4981683;28;20128;-91
2023/09/04 07:19:26;;;;;;;0.20;0.20;;;;;;;20.64;62.41;101317.97;4972833;28;20057;-88
2023/09/04 07:21:51;;;;;;;0.20;0.20;;;;;;;20.99;61.86;101314.28;4973281;28;20030;-89
2023/09/04 07:24:17;;;;;;;0.20;0.20;;;;;;;20.85;61.67;101312.78;4956486;28;20488;-88
2023/09/04 07:26:43;;;;;;;0.20;0.20;;;;;;;20.77;61.34;101313.41;4983883;28;20049;-89
2023/09/04 07:29:09;;;;;;;0.20;0.20;;;;;;;20.64;61.47;101312.69;4943480;28;20039;-92
2023/09/04 07:31:34;;;;;;;0.20;0.20;;;;;;;20.69;61.35;101323.69;4958785;28;20034;-92
2023/09/04 07:34:00;;;;;;;0.20;0.20;;;;;;;20.76;62.55;101319.63;4975822;28;20034;-96
2023/09/04 07:36:27;;;;;;;0.20;0.20;;;;;;;20.87;61.65;101316.13;4959398;28;20027;-92
2023/09/04 07:38:53;;;;;;;0.20;0.20;;;;;;;20.82;61.04;101323.53;4989766;28;20027;-92
2023/09/04 07:41:19;;;;;;;0.20;0.20;;;;;;;20.57;61.96;101295.78;4991195;28;20030;-93
2023/09/04 07:43:45;;;;;;;0.20;0.20;;;;;;;20.72;61.75;101312.94;4977730;28;20515;-87
2023/09/04 07:46:10;;;;;;;0.20;0.20;;;;;;;20.53;61.46;101308.31;4957304;28;20046;-87
2023/09/04 07:48:35;;;;;;;0.20;0.20;;;;;;;20.62;62.01;101323.34;4973555;28;20070;-92
2023/09/04 07:51:03;;;;;;;0.20;0.20;;;;;;;20.61;62.37;101328.72;4959374;28;20042;-89
2023/09/04 07:53:29;;;;;;;0.20;0.20;;;;;;;20.54;62.04;101309.97;4952692;28;20089;-88
2023/09/04 07:55:55;;;;;;;0.20;0.20;;;;;;;20.59;62.36;101330.66;4989540;28;20030;-93
2023/09/04 07:58:21;;;;;;;0.20;0.20;;;;;;;20.63;62.44;101339.97;4991965;28;20437;-92
2023/09/04 08:00:47;;;;;;;0.20;0.20;;;;;;;20.60;63.19;101340.22;4957248;28;20030;-93
2023/09/04 08:03:13;;;;;;;0.20;0.20;;;;;;;20.48;63.14;101336.78;4969827;28;20105;-92
2023/09/04 08:05:39;;;;;;;0.20;0.20;;;;;;;20.33;63.70;101336.13;4966780;28;20037;-89
2023/09/04 08:08:09;;;;;;;0.10;0.10;;;;;;;20.39;63.71;101345.34;4974525;28;20125;-88
2023/09/04 08:10:40;;;;;;;0.20;0.20;;;;;;;20.41;63.59;101350.47;4976443;28;20072;-89
2023/09/04 08:13:09;;;;;;;0.10;0.10;;;;;;;20.16;64.40;101355.03;4971182;28;20113;-88
2023/09/04 08:15:35;;;;;;;0.20;0.20;;;;;;;20.22;64.75;101341.41;4958813;28;20027;-88
2023/09/04 08:18:00;;;;;;;0.20;0.20;;;;;;;19.99;65.02;101313.47;4971322;28;20065;-89
2023/09/04 08:20:27;;;;;;;0.20;0.20;;;;;;;20.20;64.50;101347.75;4970815;28;20069;-89
2023/09/04 08:22:53;;;;;;;0.20;0.20;;;;;;;20.05;65.24;101347.13;4974535;28;20066;-91
2023/09/04 08:25:21;;;;;;;0.20;0.20;;;;;;;20.01;65.18;101332.56;4975265;28;20118;-92
2023/09/04 08:27:46;;;;;;;0.20;0.20;;;;;;;20.05;65.26;101345.34;4971941;28;20047;-92
2023/09/04 08:30:12;;;;;;;0.20;0.20;;;;;;;20.17;65.19;101350.63;4944708;28;20034;-92
2023/09/04 08:32:38;;;;;;;0.10;0.10;;;;;;;20.09;65.57;101353.00;4943581;28;20035;-95
2023/09/04 08:35:04;;;;;;;0.20;0.20;;;;;;;20.14;65.25;101359.53;4974054;28;20046;-92
2023/09/04 08:37:30;;;;;;;0.20;0.20;;;;;;;20.11;65.58;101349.28;4975901;28;20027;-89
2023/09/04 08:39:56;;;;;;;0.20;0.20;;;;;;;20.25;65.38;101356.91;4982150;28;20041;-91
2023/09/04 08:42:22;;;;;;;0.20;0.20;;;;;;;20.42;65.61;101354.78;4974354;28;20061;-87
2023/09/04 08:44:48;;;;;;;0.20;0.20;;;;;;;20.49;65.54;101356.00;4974775;28;20030;-89
2023/09/04 08:47:14;;;;;;;0.20;0.20;;;;;;;20.60;64.90;101355.97;4959207;28;20089;-88
2023/09/04 08:49:40;;;;;;;0.20;0.20;;;;;;;20.75;64.23;101360.03;4947911;28;20038;-89
2023/09/04 08:52:06;;;;;;;0.20;0.20;;;;;;;20.56;64.87;101344.06;4960190;28;20066;-90
2023/09/04 08:54:33;;;;;;;0.20;0.20;;;;;;;20.74;64.78;101358.34;4976729;28;20553;-89
2023/09/04 08:56:59;;;;;;;0.20;0.20;;;;;;;20.79;65.14;101356.19;4950510;28;20552;-89
2023/09/04 08:59:25;;;;;;;0.20;0.20;;;;;;;21.01;64.66;101367.59;4971739;28;20018;-87
2023/09/04 09:01:52;;;;;;;0.20;0.20;;;;;;;21.15;64.35;101369.97;4971560;28;20057;-86
2023/09/04 09:04:22;;;;;;;0.20;0.20;;;;;;;21.27;63.50;101347.94;4954685;28;20114;-90
2023/09/04 09:06:50;;;;;;;0.20;0.20;;;;;;;21.42;63.09;101351.91;4955678;28;20085;-91
2023/09/04 09:09:16;;;;;;;0.20;0.20;;;;;;;21.51;62.47;101339.78;4957088;28;20085;-91
2023/09/04 09:11:45;;;;;;;0.20;0.20;;;;;;;21.83;61.75;101362.56;4952138;28;20039;-91
2023/09/04 09:14:15;;;;;;;0.20;0.20;;;;;;;21.91;62.20;101345.13;4955077;28;20034;-89
2023/09/04 09:16:40;;;;;;;0.20;0.20;;;;;;;22.25;58.42;101360.72;4955590;28;20019;-92
2023/09/04 09:19:10;;;;;;;0.20;0.20;;;;;;;22.37;57.64;101359.66;4955214;28;20054;-92
2023/09/04 09:21:38;;;;;;;0.20;0.20;;;;;;;22.41;56.79;101353.16;4968764;28;20025;-90
2023/09/04 09:24:18;;;;;;;0.20;0.20;;;;;;;22.73;56.22;101358.25;4938525;28;20027;-89
2023/09/04 09:26:49;;;;;;;0.20;0.20;;;;;;;22.74;54.83;101353.81;4940137;28;20110;-87
2023/09/04 09:29:14;;;;;;;0.20;0.20;;;;;;;22.85;55.44;101356.34;4938063;28;20045;-92
2023/09/04 09:31:42;;;;;;;0.20;0.20;;;;;;;22.82;54.32;101351.31;4957158;28;20019;-89
2023/09/04 09:34:09;;;;;;;0.20;0.20;;;;;;;22.80;55.17;101361.16;4954612;28;20519;-90
2023/09/04 09:36:34;;;;;;;0.10;0.10;;;;;;;22.76;54.88;101354.50;4953058;28;20027;-89
2023/09/04 09:39:03;;;;;;;0.10;0.10;;;;;;;22.95;54.76;101372.19;4958760;28;20089;-87
2023/09/04 09:41:31;;;;;;;0.20;0.20;;;;;;;23.00;54.38;101354.94;4953972;28;20459;-90
2023/09/04 09:44:02;;;;;;;0.20;0.20;;;;;;;23.19;54.14;101343.56;4957689;28;20037;-90
2023/09/04 09:46:29;;;;;;;0.20;0.20;;;;;;;23.43;53.15;101362.47;4954460;28;20037;-88
2023/09/04 09:48:56;;;;;;;0.20;0.20;;;;;;;23.47;52.22;101360.38;4968576;28;20074;-90
2023/09/04 09:51:21;;;;;;;0.20;0.20;;;;;;;23.58;50.57;101368.13;4969891;28;20445;-93
2023/09/04 09:53:51;;;;;;;0.20;0.20;;;;;;;23.57;51.62;101371.75;4952992;28;20039;-90
2023/09/04 09:56:18;;;;;;;0.20;0.20;;;;;;;23.56;50.53;101370.09;4955789;28;20452;-90
2023/09/04 09:58:48;;;;;;;0.17;0.17;;;;;;;23.64;50.41;101370.25;4955636;28;20023;-93
2023/09/04 10:01:14;;;;;;;0.20;0.20;;;;;;;23.76;49.80;101355.06;4953174;28;20039;-88
2023/09/04 10:03:40;;;;;;;0.20;0.20;;;;;;;23.91;48.91;101372.16;4956524;28;20038;-85
2023/09/04 10:06:06;;;;;;;0.20;0.20;;;;;;;24.03;48.79;101384.22;4958880;28;20026;-93
2023/09/04 10:08:40;;;;;;;0.20;0.20;;;;;;;24.08;49.94;101378.47;4941791;28;20600;-91
2023/09/04 10:11:16;;;;;;;0.20;0.20;;;;;;;24.08;49.36;101388.22;4976571;28;20026;-85
2023/09/04 10:14:09;;;;;;;0.20;0.20;;;;;;;24.04;49.89;101380.59;4967845;28;20042;-90
2023/09/04 10:16:42;;;;;;;0.20;0.20;;;;;;;23.98;49.51;101377.66;4974513;28;20046;-90
2023/09/04 10:19:09;;;;;;;0.20;0.20;;;;;;;23.94;50.44;101389.53;4944856;28;20512;-92
2023/09/04 10:21:34;;;;;;;0.20;0.20;;;;;;;23.92;51.19;101386.19;4963649;28;20038;-91
2023/09/04 10:24:02;;;;;;;0.20;0.20;;;;;;;23.90;51.44;101369.66;4962038;28;20034;-90
2023/09/04 10:26:36;;;;;;;0.20;0.20;;;;;;;23.77;52.56;101374.41;4960889;28;20151;-88
2023/09/04 10:29:05;;;;;;;0.20;0.20;;;;;;;23.87;52.52;101386.59;4961941;28;20039;-86
2023/09/04 10:31:33;;;;;;;0.20;0.20;;;;;;;23.78;52.78;101391.91;4959552;28;20035;-88
2023/09/04 10:33:58;;;;;;;0.20;0.20;;;;;;;23.73;52.56;101395.00;4954459;28;20017;-92
2023/09/04 10:36:24;;;;;;;0.20;0.20;;;;;;;23.52;53.20;101387.19;4961879;28;20035;-89
2023/09/04 10:38:49;;;;;;;0.20;0.20;;;;;;;23.37;52.97;101373.59;4973964;28;20035;-88
2023/09/04 10:41:15;;;;;;;0.20;0.20;;;;;;;23.49;52.90;101382.19;4958076;28;20030;-88
2023/09/04 10:43:43;;;;;;;0.10;0.10;;;;;;;23.48;52.96;101393.72;4962871;28;20038;-87
2023/09/04 10:46:10;;;;;;;0.20;0.20;;;;;;;23.42;52.78;101391.66;4975956;28;20460;-89
2023/09/04 10:48:46;;;;;;;0.20;0.20;;;;;;;23.30;53.64;101392.75;4956932;28;21459;-90
2023/09/04 10:51:30;;;;;;;0.20;0.20;;;;;;;23.25;53.32;101397.63;4971730;28;20114;-91
2023/09/04 10:54:18;;;;;;;0.20;0.20;;;;;;;22.99;52.91;101389.41;4970562;28;20062;-90
2023/09/04 10:56:55;;;;;;;0.20;0.20;;;;;;;22.89;52.99;101405.22;4981908;28;20121;-91
2023/09/04 10:59:23;;;;;;;0.20;0.20;;;;;;;22.89;52.75;101410.50;4975391;28;20059;-90
2023/09/04 11:01:49;;;;;;;0.10;0.10;;;;;;;22.77;53.08;101407.09;4943575;28;20070;-91
2023/09/04 11:04:36;;;;;;;0.10;0.10;;;;;;;22.82;53.26;101417.28;4942718;28;20098;-94
2023/09/04 11:07:19;;;;;;;0.20;0.20;;;;;;;22.63;53.86;101409.31;4969775;28;20049;-88
2023/09/04 11:09:45;;;;;;;0.20;0.20;;;;;;;22.57;54.12;101419.41;4976273;28;20054;-86
2023/09/04 11:12:18;;;;;;;0.20;0.20;;;;;;;22.59;53.35;101433.28;4974235;28;20207;-86
2023/09/04 11:14:45;;;;;;;0.20;0.20;;;;;;;22.51;53.43;101417.28;4972003;28;20027;-85
2023/09/04 11:17:10;;;;;;;0.10;0.10;;;;;;;22.63;53.11;101435.66;4953743;28;20031;-88
2023/09/04 11:19:35;;;;;;;0.20;0.20;;;;;;;22.50;52.99;101436.72;4957711;28;20054;-90
2023/09/04 11:22:02;;;;;;;0.20;0.20;;;;;;;22.44;52.60;101425.88;4957640;28;20023;-90
2023/09/04 11:24:29;;;;;;;0.20;0.20;;;;;;;22.28;52.15;101429.00;4972934;28;20053;-87